sensor_id;sensor_type;location;lat;lon;timestamp;pressure;altitude;pressure_sealevel;temperature;humidity
71299;BME280;59083;47.974;21.722;2023-02-01T00:02:29;100222.75;;;2.08;91.24
71299;BME280;59083;47.974;21.722;2023-02-01T00:05:30;100225.78;;;2.03;91.65
71299;BME280;59083;47.974;21.722;2023-02-01T00:08:32;100228.00;;;1.98;92.18
71299;BME280;59083;47.974;21.722;2023-02-01T00:11:33;100238.47;;;1.79;93.17
71299;BME280;59083;47.974;21.722;2023-02-01T00:14:35;100239.44;;;1.78;93.35
71299;BME280;59083;47.974;21.722;2023-02-01T00:17:39;100243.28;;;1.64;93.99
71299;BME280;59083;47.974;21.722;2023-02-01T00:20:45;100232.50;;;1.67;94.10
71299;BME280;59083;47.974;21.722;2023-02-01T00:23:48;100232.19;;;1.61;94.29
71299;BME280;59083;47.974;21.722;2023-02-01T00:26:49;100226.63;;;1.54;94.30
71299;BME280;59083;47.974;21.722;2023-02-01T00:29:51;100218.50;;;1.48;94.73
71299;BME280;59083;47.974;21.722;2023-02-01T00:32:52;100209.94;;;1.55;94.28
71299;BME280;59083;47.974;21.722;2023-02-01T00:35:57;100235.09;;;1.58;94.32
71299;BME280;59083;47.974;21.722;2023-02-01T00:39:01;100235.94;;;1.68;94.16
71299;BME280;59083;47.974;21.722;2023-02-01T00:42:03;100230.16;;;1.74;94.10
71299;BME280;59083;47.974;21.722;2023-02-01T00:45:05;100226.59;;;1.85;93.45
71299;BME280;59083;47.974;21.722;2023-02-01T00:48:06;100220.91;;;1.89;93.32
71299;BME280;59083;47.974;21.722;2023-02-01T00:51:14;100227.16;;;1.98;93.21
71299;BME280;59083;47.974;21.722;2023-02-01T00:54:16;100228.25;;;1.95;93.37
71299;BME280;59083;47.974;21.722;2023-02-01T00:57:17;100215.41;;;2.02;93.21
71299;BME280;59083;47.974;21.722;2023-02-01T01:00:18;100212.53;;;2.05;92.84
71299;BME280;59083;47.974;21.722;2023-02-01T01:03:19;100203.66;;;1.96;93.00
71299;BME280;59083;47.974;21.722;2023-02-01T01:06:24;100200.59;;;1.91;93.55
71299;BME280;59083;47.974;21.722;2023-02-01T01:09:25;100201.56;;;1.81;94.25
71299;BME280;59083;47.974;21.722;2023-02-01T01:12:27;100203.78;;;1.76;94.79
71299;BME280;59083;47.974;21.722;2023-02-01T01:15:28;100203.88;;;1.64;95.49
71299;BME280;59083;47.974;21.722;2023-02-01T01:18:30;100199.72;;;1.62;95.96
71299;BME280;59083;47.974;21.722;2023-02-01T01:21:32;100190.59;;;1.66;95.93
71299;BME280;59083;47.974;21.722;2023-02-01T01:24:33;100172.09;;;1.58;96.38
71299;BME280;59083;47.974;21.722;2023-02-01T01:27:34;100183.37;;;1.49;97.16
71299;BME280;59083;47.974;21.722;2023-02-01T01:30:36;100183.78;;;1.54;97.50
71299;BME280;59083;47.974;21.722;2023-02-01T01:33:37;100172.87;;;1.49;97.37
71299;BME280;59083;47.974;21.722;2023-02-01T01:36:39;100173.56;;;1.51;97.40
71299;BME280;59083;47.974;21.722;2023-02-01T01:39:40;100172.34;;;1.55;97.90
71299;BME280;59083;47.974;21.722;2023-02-01T01:42:43;100177.62;;;1.64;97.31
71299;BME280;59083;47.974;21.722;2023-02-01T01:45:45;100167.25;;;1.63;98.03
71299;BME280;59083;47.974;21.722;2023-02-01T01:49:09;100165.03;;;1.58;97.76
71299;BME280;59083;47.974;21.722;2023-02-01T01:52:11;100160.75;;;1.57;98.34
71299;BME280;59083;47.974;21.722;2023-02-01T01:55:14;100154.38;;;1.60;98.09
71299;BME280;59083;47.974;21.722;2023-02-01T01:58:19;100144.69;;;1.60;98.30
71299;BME280;59083;47.974;21.722;2023-02-01T02:01:22;100144.16;;;1.57;98.71
71299;BME280;59083;47.974;21.722;2023-02-01T02:04:24;100147.19;;;1.62;98.77
71299;BME280;59083;47.974;21.722;2023-02-01T02:07:30;100139.88;;;1.56;99.30
71299;BME280;59083;47.974;21.722;2023-02-01T02:10:33;100135.31;;;1.58;99.43
71299;BME280;59083;47.974;21.722;2023-02-01T02:13:54;100126.75;;;1.56;99.65
71299;BME280;59083;47.974;21.722;2023-02-01T02:27:14;100145.69;;;1.69;99.18
71299;BME280;59083;47.974;21.722;2023-02-01T02:40:08;100148.31;;;1.69;99.69
71299;BME280;59083;47.974;21.722;2023-02-01T02:43:22;100135.19;;;1.69;99.65
71299;BME280;59083;47.974;21.722;2023-02-01T02:46:48;100117.63;;;1.79;99.74
71299;BME280;59083;47.974;21.722;2023-02-01T02:53:59;100104.91;;;1.84;99.24
71299;BME280;59083;47.974;21.722;2023-02-01T02:57:30;100100.78;;;1.91;98.90
71299;BME280;59083;47.974;21.722;2023-02-01T03:00:52;100107.69;;;1.92;98.84
71299;BME280;59083;47.974;21.722;2023-02-01T03:04:14;100110.72;;;1.97;98.63
71299;BME280;59083;47.974;21.722;2023-02-01T03:14:02;100126.22;;;1.81;99.56
71299;BME280;59083;47.974;21.722;2023-02-01T03:17:14;100122.63;;;1.82;99.62
71299;BME280;59083;47.974;21.722;2023-02-01T03:20:18;100123.16;;;1.95;99.20
71299;BME280;59083;47.974;21.722;2023-02-01T03:23:25;100121.25;;;1.88;99.56
71299;BME280;59083;47.974;21.722;2023-02-01T03:26:30;100106.03;;;1.91;99.52
71299;BME280;59083;47.974;21.722;2023-02-01T03:29:38;100104.78;;;1.95;99.43
71299;BME280;59083;47.974;21.722;2023-02-01T03:32:42;100103.12;;;2.04;99.41
71299;BME280;59083;47.974;21.722;2023-02-01T03:42:47;100088.72;;;2.08;99.40
71299;BME280;59083;47.974;21.722;2023-02-01T03:45:54;100083.34;;;2.10;99.12
71299;BME280;59083;47.974;21.722;2023-02-01T03:48:57;100077.50;;;2.06;99.32
71299;BME280;59083;47.974;21.722;2023-02-01T03:52:00;100103.25;;;2.02;99.66
71299;BME280;59083;47.974;21.722;2023-02-01T03:55:03;100077.53;;;1.96;99.84
71299;BME280;59083;47.974;21.722;2023-02-01T03:58:09;100101.03;;;2.07;99.57
71299;BME280;59083;47.974;21.722;2023-02-01T04:01:13;100111.00;;;2.04;99.70
71299;BME280;59083;47.974;21.722;2023-02-01T04:04:15;100127.88;;;2.01;99.83
71299;BME280;59083;47.974;21.722;2023-02-01T04:07:20;100142.25;;;1.97;100.00
71299;BME280;59083;47.974;21.722;2023-02-01T04:10:22;100140.31;;;1.90;100.00
71299;BME280;59083;47.974;21.722;2023-02-01T04:13:23;100140.03;;;2.02;100.00
71299;BME280;59083;47.974;21.722;2023-02-01T04:16:24;100140.31;;;1.99;100.00
71299;BME280;59083;47.974;21.722;2023-02-01T04:19:25;100129.66;;;1.91;100.00
71299;BME280;59083;47.974;21.722;2023-02-01T04:22:27;100126.75;;;1.94;100.00
71299;BME280;59083;47.974;21.722;2023-02-01T04:25:29;100135.87;;;1.90;100.00
71299;BME280;59083;47.974;21.722;2023-02-01T04:28:31;100130.78;;;1.79;100.00
71299;BME280;59083;47.974;21.722;2023-02-01T04:31:32;100119.56;;;1.77;100.00
71299;BME280;59083;47.974;21.722;2023-02-01T04:34:33;100115.31;;;1.76;100.00
71299;BME280;59083;47.974;21.722;2023-02-01T04:37:35;100131.06;;;1.76;100.00
71299;BME280;59083;47.974;21.722;2023-02-01T04:40:36;100133.94;;;1.73;100.00
71299;BME280;59083;47.974;21.722;2023-02-01T04:43:40;100116.81;;;1.69;100.00
71299;BME280;59083;47.974;21.722;2023-02-01T04:46:42;100124.28;;;1.64;100.00
71299;BME280;59083;47.974;21.722;2023-02-01T04:49:43;100129.78;;;1.61;100.00
71299;BME280;59083;47.974;21.722;2023-02-01T04:52:44;100136.44;;;1.65;100.00
71299;BME280;59083;47.974;21.722;2023-02-01T04:55:48;100131.72;;;1.59;100.00
71299;BME280;59083;47.974;21.722;2023-02-01T04:58:49;100129.38;;;1.65;100.00
71299;BME280;59083;47.974;21.722;2023-02-01T05:01:50;100125.22;;;1.63;100.00
71299;BME280;59083;47.974;21.722;2023-02-01T05:04:52;100132.81;;;1.56;100.00
71299;BME280;59083;47.974;21.722;2023-02-01T05:07:53;100136.97;;;1.59;100.00
71299;BME280;59083;47.974;21.722;2023-02-01T05:10:55;100148.03;;;1.53;100.00
71299;BME280;59083;47.974;21.722;2023-02-01T05:13:56;100155.22;;;1.60;100.00
71299;BME280;59083;47.974;21.722;2023-02-01T05:16:57;100155.78;;;1.64;100.00
71299;BME280;59083;47.974;21.722;2023-02-01T05:19:58;100152.75;;;1.69;100.00
71299;BME280;59083;47.974;21.722;2023-02-01T05:23:00;100156.34;;;1.67;100.00
71299;BME280;59083;47.974;21.722;2023-02-01T05:26:01;100150.25;;;1.67;100.00
71299;BME280;59083;47.974;21.722;2023-02-01T05:29:04;100143.06;;;1.69;100.00
71299;BME280;59083;47.974;21.722;2023-02-01T05:32:06;100147.75;;;1.65;100.00
71299;BME280;59083;47.974;21.722;2023-02-01T05:35:08;100138.25;;;1.64;100.00
71299;BME280;59083;47.974;21.722;2023-02-01T05:38:09;100131.44;;;1.62;100.00
71299;BME280;59083;47.974;21.722;2023-02-01T05:41:10;100130.31;;;1.55;100.00
71299;BME280;59083;47.974;21.722;2023-02-01T05:44:11;100128.09;;;1.50;100.00
71299;BME280;59083;47.974;21.722;2023-02-01T05:47:13;100141.13;;;1.52;100.00
71299;BME280;59083;47.974;21.722;2023-02-01T05:50:15;100148.84;;;1.53;100.00
71299;BME280;59083;47.974;21.722;2023-02-01T05:53:17;100165.69;;;1.51;100.00
71299;BME280;59083;47.974;21.722;2023-02-01T05:56:18;100158.53;;;1.53;100.00
71299;BME280;59083;47.974;21.722;2023-02-01T05:59:20;100170.66;;;1.54;100.00
71299;BME280;59083;47.974;21.722;2023-02-01T06:02:21;100179.00;;;1.59;100.00
71299;BME280;59083;47.974;21.722;2023-02-01T06:05:22;100193.91;;;1.58;100.00
71299;BME280;59083;47.974;21.722;2023-02-01T06:08:24;100200.25;;;1.56;100.00
71299;BME280;59083;47.974;21.722;2023-02-01T06:11:26;100196.66;;;1.57;100.00
71299;BME280;59083;47.974;21.722;2023-02-01T06:14:28;100193.22;;;1.56;100.00
71299;BME280;59083;47.974;21.722;2023-02-01T06:17:30;100210.06;;;1.54;100.00
71299;BME280;59083;47.974;21.722;2023-02-01T06:20:31;100227.66;;;1.63;100.00
71299;BME280;59083;47.974;21.722;2023-02-01T06:23:33;100225.72;;;1.65;100.00
71299;BME280;59083;47.974;21.722;2023-02-01T06:26:34;100241.19;;;1.68;100.00
71299;BME280;59083;47.974;21.722;2023-02-01T06:29:35;100243.09;;;1.56;100.00
71299;BME280;59083;47.974;21.722;2023-02-01T06:32:37;100242.44;;;1.64;100.00
71299;BME280;59083;47.974;21.722;2023-02-01T06:35:38;100252.84;;;1.75;100.00
71299;BME280;59083;47.974;21.722;2023-02-01T06:38:39;100250.87;;;1.77;100.00
71299;BME280;59083;47.974;21.722;2023-02-01T06:41:40;100247.31;;;1.78;100.00
71299;BME280;59083;47.974;21.722;2023-02-01T06:44:42;100249.50;;;1.63;100.00
71299;BME280;59083;47.974;21.722;2023-02-01T06:47:43;100236.22;;;1.65;100.00
71299;BME280;59083;47.974;21.722;2023-02-01T06:50:45;100244.78;;;1.67;100.00
71299;BME280;59083;47.974;21.722;2023-02-01T06:53:46;100228.34;;;1.65;100.00
71299;BME280;59083;47.974;21.722;2023-02-01T06:56:47;100225.44;;;1.68;100.00
71299;BME280;59083;47.974;21.722;2023-02-01T06:59:49;100206.47;;;1.55;100.00
71299;BME280;59083;47.974;21.722;2023-02-01T07:02:50;100215.78;;;1.69;100.00
71299;BME280;59083;47.974;21.722;2023-02-01T07:05:55;100221.84;;;1.69;100.00
71299;BME280;59083;47.974;21.722;2023-02-01T07:08:57;100215.66;;;1.70;100.00
71299;BME280;59083;47.974;21.722;2023-02-01T07:11:59;100210.41;;;1.70;100.00
71299;BME280;59083;47.974;21.722;2023-02-01T07:15:00;100212.47;;;1.76;100.00
71299;BME280;59083;47.974;21.722;2023-02-01T07:18:03;100219.13;;;1.80;100.00
71299;BME280;59083;47.974;21.722;2023-02-01T07:21:05;100229.94;;;1.96;100.00
71299;BME280;59083;47.974;21.722;2023-02-01T07:24:06;100239.91;;;2.02;99.87
71299;BME280;59083;47.974;21.722;2023-02-01T07:27:07;100230.75;;;2.06;99.51
71299;BME280;59083;47.974;21.722;2023-02-01T07:30:09;100239.59;;;2.05;99.55
71299;BME280;59083;47.974;21.722;2023-02-01T07:33:10;100242.38;;;2.23;98.98
71299;BME280;59083;47.974;21.722;2023-02-01T07:36:14;100239.91;;;2.41;97.72
71299;BME280;59083;47.974;21.722;2023-02-01T07:39:16;100237.97;;;2.43;96.82
71299;BME280;59083;47.974;21.722;2023-02-01T07:42:18;100241.28;;;2.64;95.70
71299;BME280;59083;47.974;21.722;2023-02-01T07:45:19;100238.22;;;2.78;95.41
71299;BME280;59083;47.974;21.722;2023-02-01T07:48:22;100235.09;;;3.12;94.07
71299;BME280;59083;47.974;21.722;2023-02-01T07:51:23;100236.72;;;3.22;92.30
71299;BME280;59083;47.974;21.722;2023-02-01T07:54:25;100248.81;;;3.52;91.53
71299;BME280;59083;47.974;21.722;2023-02-01T07:57:26;100250.94;;;3.66;91.09
71299;BME280;59083;47.974;21.722;2023-02-01T08:00:28;100248.06;;;3.87;90.22
71299;BME280;59083;47.974;21.722;2023-02-01T08:03:49;100244.59;;;3.87;89.45
71299;BME280;59083;47.974;21.722;2023-02-01T08:06:51;100247.59;;;3.74;89.77
71299;BME280;59083;47.974;21.722;2023-02-01T08:09:52;100233.09;;;3.60;90.15
71299;BME280;59083;47.974;21.722;2023-02-01T08:12:58;100242.97;;;3.76;89.98
71299;BME280;59083;47.974;21.722;2023-02-01T08:16:05;100234.56;;;3.72;90.17
71299;BME280;59083;47.974;21.722;2023-02-01T08:19:07;100241.56;;;3.54;90.47
71299;BME280;59083;47.974;21.722;2023-02-01T08:22:08;100235.91;;;3.77;90.35
71299;BME280;59083;47.974;21.722;2023-02-01T08:25:09;100232.03;;;3.81;90.37
71299;BME280;59083;47.974;21.722;2023-02-01T08:28:11;100234.56;;;3.72;90.01
71299;BME280;59083;47.974;21.722;2023-02-01T08:31:16;100226.28;;;3.85;89.73
71299;BME280;59083;47.974;21.722;2023-02-01T08:34:17;100232.28;;;3.78;90.11
71299;BME280;59083;47.974;21.722;2023-02-01T08:37:18;100238.75;;;3.65;90.40
71299;BME280;59083;47.974;21.722;2023-02-01T08:40:20;100231.03;;;3.54;90.23
71299;BME280;59083;47.974;21.722;2023-02-01T08:43:22;100248.69;;;3.71;90.06
71299;BME280;59083;47.974;21.722;2023-02-01T08:46:24;100244.88;;;3.84;89.96
71299;BME280;59083;47.974;21.722;2023-02-01T08:49:26;100252.00;;;4.01;89.35
71299;BME280;59083;47.974;21.722;2023-02-01T08:52:27;100260.06;;;4.17;88.56
71299;BME280;59083;47.974;21.722;2023-02-01T08:55:28;100263.56;;;4.35;87.72
71299;BME280;59083;47.974;21.722;2023-02-01T08:58:30;100275.31;;;4.58;86.32
71299;BME280;59083;47.974;21.722;2023-02-01T09:01:31;100264.28;;;4.81;85.36
71299;BME280;59083;47.974;21.722;2023-02-01T09:04:32;100282.00;;;5.14;83.78
71299;BME280;59083;47.974;21.722;2023-02-01T09:07:34;100284.03;;;5.20;83.06
71299;BME280;59083;47.974;21.722;2023-02-01T09:10:36;100276.31;;;5.01;82.16
71299;BME280;59083;47.974;21.722;2023-02-01T09:13:37;100284.97;;;5.11;82.99
71299;BME280;59083;47.974;21.722;2023-02-01T09:16:38;100279.22;;;5.16;81.76
71299;BME280;59083;47.974;21.722;2023-02-01T09:19:39;100266.88;;;5.24;80.68
71299;BME280;59083;47.974;21.722;2023-02-01T09:22:41;100257.00;;;5.26;79.14
71299;BME280;59083;47.974;21.722;2023-02-01T09:25:42;100263.87;;;4.93;79.76
71299;BME280;59083;47.974;21.722;2023-02-01T09:28:44;100276.69;;;5.06;79.54
71299;BME280;59083;47.974;21.722;2023-02-01T09:31:45;100269.50;;;5.16;80.00
71299;BME280;59083;47.974;21.722;2023-02-01T09:34:46;100275.56;;;5.34;79.79
71299;BME280;59083;47.974;21.722;2023-02-01T09:37:48;100271.66;;;5.47;77.86
71299;BME280;59083;47.974;21.722;2023-02-01T09:40:50;100248.91;;;5.62;78.31
71299;BME280;59083;47.974;21.722;2023-02-01T09:43:59;100251.56;;;5.96;77.26
71299;BME280;59083;47.974;21.722;2023-02-01T09:47:14;100252.38;;;5.96;75.47
71299;BME280;59083;47.974;21.722;2023-02-01T09:50:19;100250.25;;;5.58;74.87
71299;BME280;59083;47.974;21.722;2023-02-01T09:56:35;100255.59;;;5.82;74.58
71299;BME280;59083;47.974;21.722;2023-02-01T09:59:40;100248.31;;;5.76;74.32
71299;BME280;59083;47.974;21.722;2023-02-01T10:02:42;100251.63;;;5.78;74.60
71299;BME280;59083;47.974;21.722;2023-02-01T10:13:08;100236.56;;;6.12;72.96
71299;BME280;59083;47.974;21.722;2023-02-01T10:16:28;100240.19;;;6.28;nan
71299;BME280;59083;47.974;21.722;2023-02-01T10:26:26;100212.25;;;6.33;75.52
71299;BME280;59083;47.974;21.722;2023-02-01T10:29:35;100210.78;;;6.63;75.18
71299;BME280;59083;47.974;21.722;2023-02-01T10:32:39;100196.06;;;6.69;75.00
71299;BME280;59083;47.974;21.722;2023-02-01T10:35:41;100213.91;;;6.91;75.33
71299;BME280;59083;47.974;21.722;2023-02-01T10:38:45;100200.63;;;7.07;75.10
71299;BME280;59083;47.974;21.722;2023-02-01T10:41:47;100190.84;;;7.07;75.18
71299;BME280;59083;47.974;21.722;2023-02-01T10:44:48;100198.84;;;6.99;76.18
71299;BME280;59083;47.974;21.722;2023-02-01T10:47:51;100216.53;;;6.91;75.61
71299;BME280;59083;47.974;21.722;2023-02-01T10:50:58;100215.41;;;6.69;74.35
71299;BME280;59083;47.974;21.722;2023-02-01T10:54:32;100201.03;;;6.72;73.17
71299;BME280;59083;47.974;21.722;2023-02-01T10:57:33;100194.22;;;6.85;73.04
71299;BME280;59083;47.974;21.722;2023-02-01T11:00:42;100195.88;;;6.62;74.03
71299;BME280;59083;47.974;21.722;2023-02-01T11:03:52;100188.59;;;6.72;73.49
71299;BME280;59083;47.974;21.722;2023-02-01T11:07:13;100185.63;;;6.83;72.60
71299;BME280;59083;47.974;21.722;2023-02-01T11:10:40;100181.31;;;6.82;71.59
71299;BME280;59083;47.974;21.722;2023-02-01T11:13:41;100179.66;;;6.81;71.38
71299;BME280;59083;47.974;21.722;2023-02-01T11:16:48;100174.72;;;6.62;72.28
71299;BME280;59083;47.974;21.722;2023-02-01T11:20:02;100161.63;;;6.77;72.65
71299;BME280;59083;47.974;21.722;2023-02-01T11:23:04;100151.88;;;6.77;73.02
71299;BME280;59083;47.974;21.722;2023-02-01T11:26:30;100158.44;;;6.97;73.58
71299;BME280;59083;47.974;21.722;2023-02-01T11:29:40;100143.28;;;7.22;72.77
71299;BME280;59083;47.974;21.722;2023-02-01T11:32:47;100135.19;;;7.16;72.21
71299;BME280;59083;47.974;21.722;2023-02-01T11:35:49;100132.56;;;7.07;72.48
71299;BME280;59083;47.974;21.722;2023-02-01T11:39:07;100132.16;;;7.27;71.65
71299;BME280;59083;47.974;21.722;2023-02-01T11:42:15;100125.75;;;7.13;70.07
71299;BME280;59083;47.974;21.722;2023-02-01T11:48:29;100122.56;;;7.18;70.83
71299;BME280;59083;47.974;21.722;2023-02-01T11:51:44;100094.91;;;6.81;70.75
71299;BME280;59083;47.974;21.722;2023-02-01T12:08:06;100093.19;;;6.96;67.33
71299;BME280;59083;47.974;21.722;2023-02-01T12:14:53;100088.72;;;7.05;67.18
71299;BME280;59083;47.974;21.722;2023-02-01T12:38:53;100059.97;;;6.86;66.45
71299;BME280;59083;47.974;21.722;2023-02-01T12:42:03;100061.47;;;6.88;67.35
71299;BME280;59083;47.974;21.722;2023-02-01T12:45:15;100057.53;;;6.68;67.90
71299;BME280;59083;47.974;21.722;2023-02-01T12:48:36;100054.53;;;6.79;68.20
71299;BME280;59083;47.974;21.722;2023-02-01T12:51:41;100066.38;;;6.99;68.21
71299;BME280;59083;47.974;21.722;2023-02-01T12:54:53;100059.25;;;7.00;68.29
71299;BME280;59083;47.974;21.722;2023-02-01T12:58:21;100054.34;;;7.20;67.75
71299;BME280;59083;47.974;21.722;2023-02-01T13:01:34;100042.94;;;7.42;66.90
71299;BME280;59083;47.974;21.722;2023-02-01T13:17:31;100056.16;;;7.50;61.85
71299;BME280;59083;47.974;21.722;2023-02-01T13:20:52;100059.62;;;7.28;60.35
71299;BME280;59083;47.974;21.722;2023-02-01T13:23:55;100056.66;;;7.23;61.55
71299;BME280;59083;47.974;21.722;2023-02-01T13:26:56;100050.72;;;7.13;61.20
71299;BME280;59083;47.974;21.722;2023-02-01T13:30:06;100053.56;;;7.11;61.88
71299;BME280;59083;47.974;21.722;2023-02-01T13:33:44;100044.81;;;7.02;62.39
71299;BME280;59083;47.974;21.722;2023-02-01T13:40:41;100039.59;;;6.86;62.88
71299;BME280;59083;47.974;21.722;2023-02-01T13:43:48;100039.97;;;6.83;63.42
71299;BME280;59083;47.974;21.722;2023-02-01T13:46:56;100027.06;;;6.72;63.81
71299;BME280;59083;47.974;21.722;2023-02-01T13:50:02;100026.06;;;6.81;63.98
71299;BME280;59083;47.974;21.722;2023-02-01T13:56:17;100028.66;;;6.89;63.76
71299;BME280;59083;47.974;21.722;2023-02-01T14:05:54;100007.81;;;6.86;65.07
71299;BME280;59083;47.974;21.722;2023-02-01T14:12:44;100006.37;;;6.76;66.73
71299;BME280;59083;47.974;21.722;2023-02-01T14:16:11;100004.25;;;6.71;68.45
71299;BME280;59083;47.974;21.722;2023-02-01T14:19:25;99993.84;;;6.61;70.96
71299;BME280;59083;47.974;21.722;2023-02-01T14:22:33;99998.38;;;6.53;70.63
71299;BME280;59083;47.974;21.722;2023-02-01T14:25:35;99992.44;;;6.43;71.83
71299;BME280;59083;47.974;21.722;2023-02-01T14:28:41;99991.78;;;6.41;73.54
71299;BME280;59083;47.974;21.722;2023-02-01T14:35:24;99977.25;;;6.29;73.80
71299;BME280;59083;47.974;21.722;2023-02-01T14:38:27;99975.28;;;6.22;74.62
71299;BME280;59083;47.974;21.722;2023-02-01T14:41:34;99961.47;;;5.96;74.37
71299;BME280;59083;47.974;21.722;2023-02-01T14:44:36;99969.06;;;6.07;73.37
71299;BME280;59083;47.974;21.722;2023-02-01T14:47:38;99969.38;;;6.04;72.88
71299;BME280;59083;47.974;21.722;2023-02-01T14:50:42;99980.00;;;5.96;72.35
71299;BME280;59083;47.974;21.722;2023-02-01T14:53:45;99966.59;;;5.90;72.23
71299;BME280;59083;47.974;21.722;2023-02-01T14:56:48;99976.34;;;5.89;71.62
71299;BME280;59083;47.974;21.722;2023-02-01T14:59:57;99974.19;;;5.85;70.67
71299;BME280;59083;47.974;21.722;2023-02-01T15:03:32;99983.28;;;5.90;70.93
71299;BME280;59083;47.974;21.722;2023-02-01T15:06:43;99983.13;;;5.92;70.49
71299;BME280;59083;47.974;21.722;2023-02-01T15:09:46;99986.25;;;5.95;70.35
71299;BME280;59083;47.974;21.722;2023-02-01T15:12:48;99992.87;;;5.91;69.91
71299;BME280;59083;47.974;21.722;2023-02-01T15:16:15;99995.84;;;5.88;69.97
71299;BME280;59083;47.974;21.722;2023-02-01T15:19:16;99988.56;;;5.74;70.25
71299;BME280;59083;47.974;21.722;2023-02-01T15:22:19;99986.91;;;5.65;70.29
71299;BME280;59083;47.974;21.722;2023-02-01T15:25:25;99987.75;;;5.57;70.96
71299;BME280;59083;47.974;21.722;2023-02-01T15:28:27;99996.97;;;5.53;71.33
71299;BME280;59083;47.974;21.722;2023-02-01T15:31:49;99997.16;;;5.44;71.20
71299;BME280;59083;47.974;21.722;2023-02-01T15:34:51;100000.13;;;5.40;71.81
71299;BME280;59083;47.974;21.722;2023-02-01T15:37:52;100005.38;;;5.32;72.08
71299;BME280;59083;47.974;21.722;2023-02-01T15:47:28;100020.56;;;5.22;73.27
71299;BME280;59083;47.974;21.722;2023-02-01T15:50:30;100014.59;;;5.12;73.88
71299;BME280;59083;47.974;21.722;2023-02-01T15:53:32;100022.84;;;5.01;75.26
71299;BME280;59083;47.974;21.722;2023-02-01T15:56:40;100021.19;;;5.00;75.08
71299;BME280;59083;47.974;21.722;2023-02-01T15:59:43;100025.44;;;4.93;76.41
71299;BME280;59083;47.974;21.722;2023-02-01T16:02:55;100028.38;;;4.82;77.94
71299;BME280;59083;47.974;21.722;2023-02-01T16:06:00;100029.97;;;4.75;78.80
71299;BME280;59083;47.974;21.722;2023-02-01T16:09:10;100024.97;;;4.64;79.47
71299;BME280;59083;47.974;21.722;2023-02-01T16:15:39;100049.63;;;4.46;81.44
71299;BME280;59083;47.974;21.722;2023-02-01T16:18:41;100044.69;;;4.43;81.86
71299;BME280;59083;47.974;21.722;2023-02-01T16:21:42;100043.28;;;4.31;83.38
71299;BME280;59083;47.974;21.722;2023-02-01T16:24:43;100047.78;;;4.13;84.16
71299;BME280;59083;47.974;21.722;2023-02-01T16:27:44;100051.41;;;4.12;84.90
71299;BME280;59083;47.974;21.722;2023-02-01T16:30:47;100060.78;;;3.89;87.07
71299;BME280;59083;47.974;21.722;2023-02-01T16:33:50;100055.50;;;3.89;87.32
71299;BME280;59083;47.974;21.722;2023-02-01T16:36:52;100046.25;;;3.67;91.21
71299;BME280;59083;47.974;21.722;2023-02-01T16:39:54;100046.03;;;3.60;92.50
71299;BME280;59083;47.974;21.722;2023-02-01T16:42:55;100034.16;;;3.56;93.14
71299;BME280;59083;47.974;21.722;2023-02-01T16:45:59;100038.34;;;3.49;94.46
71299;BME280;59083;47.974;21.722;2023-02-01T16:49:02;100037.63;;;3.39;95.53
71299;BME280;59083;47.974;21.722;2023-02-01T16:52:03;100051.00;;;3.28;96.18
71299;BME280;59083;47.974;21.722;2023-02-01T16:55:12;100037.47;;;3.23;95.53
71299;BME280;59083;47.974;21.722;2023-02-01T16:58:17;100030.44;;;3.14;97.63
71299;BME280;59083;47.974;21.722;2023-02-01T17:01:19;100043.22;;;3.09;98.21
71299;BME280;59083;47.974;21.722;2023-02-01T17:04:20;100035.62;;;3.06;97.83
71299;BME280;59083;47.974;21.722;2023-02-01T17:07:22;100030.63;;;3.03;98.14
71299;BME280;59083;47.974;21.722;2023-02-01T17:10:25;100023.87;;;3.00;98.01
71299;BME280;59083;47.974;21.722;2023-02-01T17:13:28;100014.19;;;3.01;98.07
71299;BME280;59083;47.974;21.722;2023-02-01T17:16:30;100023.50;;;2.95;99.11
71299;BME280;59083;47.974;21.722;2023-02-01T17:19:32;100026.56;;;2.90;98.91
71299;BME280;59083;47.974;21.722;2023-02-01T17:22:33;100032.81;;;2.89;98.54
71299;BME280;59083;47.974;21.722;2023-02-01T17:25:35;100032.19;;;2.78;99.53
71299;BME280;59083;47.974;21.722;2023-02-01T17:28:36;100040.22;;;2.76;99.13
71299;BME280;59083;47.974;21.722;2023-02-01T17:31:40;100041.31;;;2.74;99.32
71299;BME280;59083;47.974;21.722;2023-02-01T17:34:42;100037.88;;;2.73;99.21
71299;BME280;59083;47.974;21.722;2023-02-01T17:37:44;100034.75;;;2.60;99.97
71299;BME280;59083;47.974;21.722;2023-02-01T17:40:45;100030.78;;;2.56;100.00
71299;BME280;59083;47.974;21.722;2023-02-01T17:43:47;100023.28;;;2.52;100.00
71299;BME280;59083;47.974;21.722;2023-02-01T17:46:49;100022.56;;;2.59;99.94
71299;BME280;59083;47.974;21.722;2023-02-01T17:49:50;100022.88;;;2.56;100.00
71299;BME280;59083;47.974;21.722;2023-02-01T17:52:56;100020.37;;;2.55;99.99
71299;BME280;59083;47.974;21.722;2023-02-01T17:55:57;100013.16;;;2.57;99.86
71299;BME280;59083;47.974;21.722;2023-02-01T17:58:58;100009.31;;;2.51;100.00
71299;BME280;59083;47.974;21.722;2023-02-01T18:02:00;100013.91;;;2.49;100.00
71299;BME280;59083;47.974;21.722;2023-02-01T18:05:21;100020.41;;;2.45;100.00
71299;BME280;59083;47.974;21.722;2023-02-01T18:08:25;100014.09;;;2.38;100.00
71299;BME280;59083;47.974;21.722;2023-02-01T18:11:26;100011.06;;;2.33;100.00
71299;BME280;59083;47.974;21.722;2023-02-01T18:14:30;100027.09;;;2.30;100.00
71299;BME280;59083;47.974;21.722;2023-02-01T18:17:31;100027.94;;;2.30;100.00
71299;BME280;59083;47.974;21.722;2023-02-01T18:20:32;100021.31;;;2.26;100.00
71299;BME280;59083;47.974;21.722;2023-02-01T18:23:36;100024.38;;;2.22;100.00